Portada
METAR-TAF:

METAR-TAF

Aeroports :

Vavaʻu, Tonga

latitud: 18-35-07S, longitud: 173-57-42W, altitud: 72 m

Observació

L'informe es va fer fa 1 hora i 0 minuts, a les 21:00 UTC
Vent 9 kt del Est/Sud-Est
Temperatura 26°C
Humitat 84%
Pressió 1017 hPa
Visibilitat 10 km o més
Escasses núvols a una alçada de 1600 ft
Cel ennuvolat a una alçada de 1600 ft

METAR: NFTV 272100Z 12009KT 9999 FEW016 BKN016 26/23 Q1017

Hora: 11:00 (22:00 UTC)

Pronòstic

L'informe es va fer fa 4 hores i 49 minuts, a les 17:11 UTC
Pronòstic vàlid del 27 a les 18 UTC al 28 a les 18 UTC
Vent 9 kt del Est/Sud-Est
Visibilitat 10 km o més
Escasses núvols a una alçada de 800 ft
Núvols disperses a una alçada de 1600 ft
Probabilitat 30% :
Temporalment
l' 28 a les 15 UTC al 28 a les 18 UTC
Visibilitat: 5000 m
Cel ennuvolat a una alçada de 1500 ft
xàfecs de pluja

TAF: NFTV 271711Z 2718/2818 12009KT 9999 FEW008 SCT016 PROB30 TEMPO 2815/2818 5000 SHRA BKN015

Observacions i pronòstics meteorològics de més de 4000 aeroports (METAR i TAF).

Les estacions disponibles són els punts grocs i vermells al mapa.

Posi el ratolí al punt desitjat per veure el nom de l'estació.

Feu clic per veure les observacions i els pronòstics meteorològics.

Per canviar el mapa: feu clic els botons verds amb una creu de color negre per apropar; al botó verd amb un guió per allunyar la imatge; o en les fletxes verdes per a mapes adjacents.


METAR-TAF: